Latest Weather Observations for Busselton Airport

IDW60801

Issued at 10:33 am WST Monday 27 January 2020 (issued every 10 minutes, with the page automatically refreshed every 10 minutes)

About weather observations | Map of weather stations | Latest weather observations for WA | Other Formats
Station Details ID: 009603 Name: BUSSELTON AERO Lat: -33.68 Lon: 115.40 Height: 16.3 m
Data from the previous 72 hours. | See also: Recent months at Busselton Airport
Date/Time
WST
Temp
°C
App
Temp
°C
Dew
Point
°C
Rel
Hum
%
Delta-T
°C
Wind Press
QNH
hPa
Press
MSL
hPa
Rain since
9am
mm
Dir  Spd
km/h
Gust
km/h
Spd
kts
Gust
kts
27/10:30am 31.5 30.0 11.8 30 11.5 ESE 11 19 6 10 1013.8 1013.8 0.0
27/10:00am 30.2 28.6 11.7 32 10.8 SE 11 17 6 9 1014.3 1014.3 0.0
27/09:30am 28.8 26.8 11.4 34 10.0 SSE 13 19 7 10 1014.7 1014.7 0.0
27/09:00am 26.6 24.8 10.7 37 8.9 SSE 11 20 6 11 1015.0 1015.0 0.0
27/08:30am 25.3 24.1 10.4 39 8.3 SSE 7 13 4 7 1015.2 1015.2 0.0
27/08:00am 23.9 22.3 10.2 42 7.5 ESE 9 15 5 8 1014.9 1014.9 0.0
27/07:30am 22.1 20.4 9.9 46 6.6 ESE 9 11 5 6 1014.9 1014.9 0.0
27/07:00am 20.7 19.4 11.1 54 5.3 SSE 9 13 5 7 1014.6 1014.6 0.0
27/06:30am 18.7 17.1 10.3 58 4.5 SSE 9 13 5 7 1014.6 1014.6 0.0
27/06:00am 16.4 14.1 9.1 62 3.8 SSE 11 11 6 6 1014.4 1014.4 0.0
27/05:30am 15.8 13.4 8.5 62 3.7 SSE 11 13 6 7 1014.2 1014.2 0.0
27/05:00am 15.7 13.8 9.1 65 3.4 SSE 9 9 5 5 1014.0 1014.0 0.0
27/04:30am 16.3 14.1 9.5 64 3.5 S 11 13 6 7 1013.9 1013.9 0.0
27/04:00am 16.9 14.2 9.1 60 4.0 S 13 15 7 8 1013.5 1013.5 0.0
27/03:30am 17.4 14.9 9.6 60 4.1 S 13 15 7 8 1013.5 1013.5 0.0
27/03:00am 17.5 15.0 9.7 60 4.1 S 13 17 7 9 1013.6 1013.6 0.0
27/02:30am 18.9 15.5 9.1 53 5.1 S 17 20 9 11 1013.6 1013.6 0.0
27/02:00am 18.8 15.4 9.3 54 5.0 SSE 17 17 9 9 1013.8 1013.8 0.0
27/01:30am 19.1 16.3 10.1 56 4.8 S 15 19 8 10 1014.0 1014.0 0.0
27/01:00am 19.2 16.5 10.2 56 4.8 SSE 15 19 8 10 1014.0 1014.0 0.0
27/12:30am 19.9 18.5 10.9 56 4.9 SE 9 13 5 7 1014.3 1014.3 0.0
27/12:00am 19.8 18.0 10.8 56 4.9 SSE 11 15 6 8 1014.6 1014.6 0.0
 
Date/Time
WST
Temp
°C
App
Temp
°C
Dew
Point
°C
Rel
Hum
%
Delta-T
°C
Wind Press
QNH
hPa
Press
MSL
hPa
Rain since
9am
mm
Dir  Spd
km/h
Gust
km/h
Spd
kts
Gust
kts
26/11:30pm 19.9 17.6 10.6 55 5.0 SSE 13 17 7 9 1014.7 1014.7 0.0
26/11:00pm 20.1 17.4 10.5 54 5.2 SE 15 17 8 9 1014.7 1014.7 0.0
26/10:30pm 20.7 18.3 10.2 51 5.7 SE 13 20 7 11 1014.8 1014.8 0.0
26/10:00pm 21.3 18.1 9.9 48 6.1 SSE 17 24 9 13 1014.9 1014.9 0.0
26/09:30pm 21.6 18.3 9.5 46 6.5 SSE 17 24 9 13 1014.9 1014.9 0.0
26/09:00pm 21.9 17.4 7.0 38 7.6 SSE 20 26 11 14 1014.5 1014.5 0.0
26/08:30pm 22.4 17.2 7.4 38 7.8 SSE 24 32 13 17 1014.3 1014.3 0.0
26/08:00pm 22.8 18.6 11.2 48 6.5 S 24 33 13 18 1014.4 1014.4 0.0
26/07:30pm 23.7 20.2 13.3 52 6.0 S 24 33 13 18 1014.1 1014.1 0.0
26/07:00pm 25.3 21.0 13.2 47 7.1 S 28 37 15 20 1013.9 1013.9 0.0
26/06:30pm 26.7 22.4 13.1 43 8.0 SSE 28 37 15 20 1013.6 1013.6 0.0
26/06:00pm 28.3 23.7 13.4 40 8.8 SSW 30 37 16 20 1013.4 1013.4 0.0
26/05:30pm 29.8 24.9 12.7 35 10.1 S 30 35 16 19 1013.3 1013.3 0.0
26/05:00pm 31.7 27.3 13.0 32 11.2 S 28 37 15 20 1013.1 1013.1 0.0
26/04:30pm 32.6 27.4 12.8 30 11.8 SSW 32 39 17 21 1013.1 1013.1 0.0
26/04:00pm 33.4 29.7 14.0 31 11.8 SSW 26 33 14 18 1013.1 1013.1 0.0
26/03:30pm 34.3 31.9 13.7 29 12.6 SSW 19 30 10 16 1013.2 1013.2 0.0
26/03:00pm 33.6 31.9 12.6 28 12.6 SW 13 20 7 11 1013.4 1013.4 0.0
26/02:30pm 33.4 31.7 12.4 28 12.5 SW 13 22 7 12 1013.6 1013.6 0.0
26/02:00pm 33.8 32.4 13.3 29 12.4 SSW 13 24 7 13 1013.7 1013.7 0.0
26/01:30pm 32.9 30.8 13.5 30 11.7 SSW 17 24 9 13 1013.9 1013.9 0.0
26/01:00pm 31.9 30.2 13.6 32 11.0 SSE 15 24 8 13 1014.1 1014.1 0.0
26/12:30pm 31.1 30.4 14.3 36 10.2 SW 11 20 6 11 1014.4 1014.4 0.0
26/12:00pm 30.5 30.0 15.0 39 9.5 WSW 11 19 6 10 1014.8 1014.8 0.0
26/11:30am 30.1 30.2 15.4 41 9.1 SSW 9 17 5 9 1015.1 1015.1 0.0
26/11:00am 28.4 28.4 15.3 45 8.0 SSE 9 15 5 8 1015.4 1015.4 0.0
26/10:30am 26.8 26.9 15.5 50 6.9 E 9 19 5 10 1015.6 1015.6 0.0
26/10:00am 25.2 24.5 15.5 55 5.9 SSE 13 22 7 12 1016.0 1016.0 0.0
26/09:30am 23.3 21.8 15.4 61 4.7 SSE 17 24 9 13 1016.4 1016.4 0.0
26/09:00am 21.8 19.7 14.7 64 4.2 SSE 19 24 10 13 1016.9 1016.9 0.0
26/08:30am 20.9 18.9 15.0 69 3.5 SSE 19 24 10 13 1017.3 1017.3 0.0
26/08:00am 20.0 17.4 15.0 73 2.9 SSE 22 28 12 15 1017.6 1017.6 0.0
26/07:30am 19.4 17.5 15.1 76 2.5 SSE 19 24 10 13 1017.6 1017.6 0.0
26/07:00am 18.8 16.7 14.7 77 2.4 SSE 19 24 10 13 1017.4 1017.4 0.0
26/06:30am 18.7 16.6 14.8 78 2.3 SSE 19 24 10 13 1017.2 1017.2 0.0
26/06:00am 18.5 16.8 14.8 79 2.1 SSE 17 19 9 10 1017.0 1017.0 0.0
26/05:30am 18.4 16.7 14.7 79 2.1 SSE 17 20 9 11 1016.7 1016.7 0.0
26/05:00am 18.3 16.6 14.8 80 2.0 SSE 17 20 9 11 1016.2 1016.2 0.0
26/04:30am 18.5 17.2 14.8 79 2.2 SSE 15 20 8 11 1016.1 1016.1 0.0
26/04:00am 18.5 16.8 14.8 79 2.1 SSE 17 20 9 11 1016.1 1016.1 0.0
26/03:30am 18.7 17.0 14.8 78 2.3 SSE 17 20 9 11 1016.0 1016.0 0.0
26/03:00am 18.6 17.0 14.9 79 2.2 SSE 17 24 9 13 1016.1 1016.1 0.0
26/02:30am 18.8 16.8 14.9 78 2.3 SSE 19 24 10 13 1016.4 1016.4 0.0
26/02:00am 18.9 16.9 15.0 78 2.3 SSE 19 24 10 13 1016.3 1016.3 0.0
26/01:30am 18.8 16.1 14.7 77 2.4 SSE 22 28 12 15 1016.5 1016.5 0.0
26/01:00am 19.1 16.6 15.2 78 2.3 SE 22 35 12 19 1016.6 1016.6 0.0
26/12:30am 19.2 17.2 15.5 79 2.2 SSE 20 26 11 14 1016.7 1016.7 0.0
26/12:00am 19.2 16.8 15.5 79 2.2 SE 22 30 12 16 1016.7 1016.7 0.0
 
Date/Time
WST
Temp
°C
App
Temp
°C
Dew
Point
°C
Rel
Hum
%
Delta-T
°C
Wind Press
QNH
hPa
Press
MSL
hPa
Rain since
9am
mm
Dir  Spd
km/h
Gust
km/h
Spd
kts
Gust
kts
25/11:30pm 19.3 16.3 15.8 80 2.1 SSE 26 33 14 18 1016.8 1016.8 0.0
25/11:00pm 19.5 16.9 15.8 79 2.2 SE 24 35 13 19 1016.5 1016.5 0.0
25/10:30pm 19.5 15.6 15.6 78 2.3 SSE 30 39 16 21 1016.5 1016.5 0.0
25/10:00pm 19.7 15.6 16.0 79 2.2 SSE 32 43 17 23 1016.6 1016.6 0.0
25/09:30pm 19.5 15.3 15.8 79 2.2 S 32 43 17 23 1016.5 1016.5 0.0
25/09:00pm 19.5 15.1 15.6 78 2.3 SSE 33 44 18 24 1016.4 1016.4 0.0
25/08:30pm 20.0 17.0 15.8 77 2.5 S 26 32 14 17 1015.9 1015.9 0.0
25/08:00pm 20.3 16.9 15.7 75 2.7 S 28 35 15 19 1015.9 1015.9 0.0
25/07:30pm 21.5 18.8 15.6 69 3.5 S 24 30 13 16 1015.7 1015.7 0.0
25/07:00pm 22.8 18.6 15.6 64 4.3 S 32 43 17 23 1015.4 1015.4 0.0
25/06:30pm 25.2 21.2 16.1 57 5.6 S 32 39 17 21 1015.1 1015.1 0.0
25/06:00pm 26.7 22.6 16.0 52 6.6 S 32 39 17 21 1014.8 1014.8 0.0
25/05:30pm 27.9 23.8 15.9 48 7.4 SSW 32 41 17 22 1014.6 1014.6 0.0
25/05:00pm 28.8 25.4 15.7 45 8.1 S 28 35 15 19 1014.4 1014.4 0.0
25/04:30pm 29.3 25.6 16.1 44 8.2 SSW 30 35 16 19 1014.3 1014.3 0.0
25/04:00pm 29.9 25.8 16.0 43 8.6 S 32 37 17 20 1014.4 1014.4 0.0
25/03:30pm 31.4 28.0 15.8 39 9.7 S 28 39 15 21 1014.3 1014.3 0.0
25/03:00pm 32.0 29.4 15.9 38 10.0 S 24 33 13 18 1014.5 1014.5 0.0
25/02:30pm 32.3 30.1 14.4 33 10.9 SW 19 28 10 15 1014.5 1014.5 0.0
25/02:00pm 31.4 29.9 13.2 33 10.9 S 13 22 7 12 1014.5 1014.5 0.0
25/01:30pm 31.0 28.6 12.8 32 10.8 S 17 24 9 13 1014.9 1014.9 0.0
25/01:00pm 30.9 29.3 12.8 33 10.7 S 13 24 7 13 1015.4 1015.4 0.0
25/12:30pm 29.5 27.3 12.0 34 10.2 SSE 15 24 8 13 1015.7 1015.7 0.0
25/12:00pm 28.9 26.6 11.9 35 9.9 SE 15 28 8 15 1016.3 1016.3 0.0
25/11:30am 27.6 25.4 12.0 38 9.0 SSE 15 22 8 12 1016.6 1016.6 0.0
25/11:00am 26.1 24.0 11.1 39 8.5 SSE 13 22 7 12 1017.1 1017.1 0.0
25/10:30am 25.0 23.0 12.6 46 7.2 SSE 15 24 8 13 1017.4 1017.4 0.0
25/10:00am 23.8 21.9 14.2 55 5.6 SE 17 24 9 13 1017.7 1017.7 0.0
25/09:30am 22.6 20.2 13.9 58 5.1 SSE 19 26 10 14 1017.9 1017.9 0.0
25/09:00am 21.8 19.2 13.7 60 4.7 SSE 20 28 11 15 1018.0 1018.0 0.0
25/08:30am 21.3 18.7 13.7 62 4.4 SE 20 26 11 14 1018.3 1018.3 0.0
25/08:00am 20.2 17.2 13.6 66 3.8 SSE 22 28 12 15 1018.5 1018.5 0.0
25/07:30am 19.0 15.8 13.0 68 3.4 SSE 22 30 12 16 1018.5 1018.5 0.0
25/07:00am 17.5 14.8 13.0 75 2.5 SSE 19 24 10 13 1018.4 1018.4 0.0
25/06:30am 16.1 13.8 13.0 82 1.7 SSE 17 20 9 11 1018.1 1018.1 0.0
25/06:00am 14.8 12.8 12.8 88 1.1 SSE 15 19 8 10 1017.6 1017.6 0.0
25/05:30am 13.8 11.5 11.8 88 1.1 S 15 17 8 9 1017.3 1017.3 0.0
25/05:00am 13.6 11.3 11.7 88 1.0 S 15 17 8 9 1017.0 1017.0 0.0
25/04:30am 13.9 12.0 11.8 87 1.1 S 13 15 7 8 1016.9 1016.9 0.0
25/04:00am 14.1 12.3 12.0 87 1.1 S 13 15 7 8 1016.7 1016.7 0.0
25/03:30am 14.8 13.2 12.7 87 1.2 S 13 15 7 8 1016.9 1016.9 0.0
25/03:00am 15.1 13.1 12.8 86 1.3 S 15 17 8 9 1017.1 1017.1 0.0
25/02:30am 15.0 13.7 12.5 85 1.4 SSE 11 13 6 7 1017.3 1017.3 0.0
25/02:00am 15.9 14.5 13.4 85 1.4 SE 13 15 7 8 1017.4 1017.4 0.0
25/01:30am 16.0 14.9 13.1 83 1.6 SSE 11 17 6 9 1017.6 1017.6 0.0
25/01:00am 16.6 15.2 13.3 81 1.8 SE 13 19 7 10 1017.7 1017.7 0.0
25/12:30am 17.0 15.5 13.1 78 2.2 SE 13 17 7 9 1017.8 1017.8 0.0
25/12:00am 17.5 15.3 13.4 77 2.3 SSE 17 22 9 12 1018.2 1018.2 0.0
 
Date/Time
WST
Temp
°C
App
Temp
°C
Dew
Point
°C
Rel
Hum
%
Delta-T
°C
Wind Press
QNH
hPa
Press
MSL
hPa
Rain since
9am
mm
Dir  Spd
km/h
Gust
km/h
Spd
kts
Gust
kts
24/11:30pm 18.1 15.6 13.6 75 2.6 SSE 19 26 10 14 1018.0 1018.0 0.0
24/11:00pm 18.5 15.9 13.8 74 2.7 SSE 20 30 11 16 1018.0 1018.0 0.0
24/10:30pm 18.6 15.7 13.9 74 2.7 SSE 22 32 12 17 1018.2 1018.2 0.0
24/10:00pm 18.7 15.5 14.2 75 2.6 SSE 24 33 13 18 1018.3 1018.3 0.0
24/09:30pm 18.9 15.3 14.2 74 2.7 SSE 26 33 14 18 1018.0 1018.0 0.0
24/09:00pm 19.2 15.2 14.0 72 3.0 S 28 35 15 19 1017.9 1017.9 0.0
24/08:30pm 19.5 16.4 13.4 68 3.5 S 22 30 12 16 1017.7 1017.7 0.0
24/08:00pm 20.0 16.5 12.3 61 4.3 S 22 32 12 17 1017.5 1017.5 0.0
24/07:30pm 20.9 16.5 12.8 60 4.6 S 28 37 15 20 1017.3 1017.3 0.0
24/07:00pm 22.5 17.5 13.3 56 5.3 S 32 41 17 22 1017.0 1017.0 0.0
24/06:30pm 23.5 18.8 13.1 52 6.0 S 30 35 16 19 1016.7 1016.7 0.0
24/06:00pm 25.6 21.0 13.5 47 7.1 SSW 30 35 16 19 1016.4 1016.4 0.0
24/05:30pm 26.6 21.7 13.7 45 7.6 SSW 32 43 17 23 1016.0 1016.0 0.0
24/05:00pm 28.2 23.4 14.1 42 8.4 S 32 39 17 21 1015.6 1015.6 0.0
24/04:30pm 29.3 26.1 14.3 40 9.1 NW 24 33 13 18 1015.0 1015.0 0.0
24/04:00pm 29.6 26.5 14.6 40 9.1 NW 24 32 13 17 1015.1 1015.1 0.0
24/03:30pm 29.2 26.1 14.6 41 8.9 NW 24 32 13 17 1015.5 1015.5 0.0
24/03:00pm 28.0 24.4 14.3 43 8.2 NW 26 32 14 17 1015.9 1015.9 0.0
24/02:30pm 27.5 24.8 13.4 41 8.3 NW 20 26 11 14 1016.2 1016.2 0.0
24/02:00pm 27.2 24.1 13.5 42 8.1 NW 22 28 12 15 1016.4 1016.4 0.0
24/01:30pm 26.6 23.8 13.3 43 7.8 NW 20 26 11 14 1016.8 1016.8 0.0
24/01:00pm 27.3 24.3 13.6 43 8.1 NW 22 32 12 17 1017.0 1017.0 0.0
24/12:30pm 26.4 25.1 12.5 42 8.1 NW 11 24 6 13 1017.5 1017.5 0.0
24/12:00pm 27.1 26.1 12.3 39 8.6 ESE 9 19 5 10 1017.9 1017.9 0.0
24/11:30am 26.4 24.7 11.3 39 8.6 S 11 17 6 9 1018.5 1018.5 0.0
24/11:00am 25.0 23.0 11.6 43 7.6 ESE 13 22 7 12 1018.7 1018.7 0.0

Other formats

Comma delimited format used in spreadsheet applications
http://www.bom.gov.au/fwo/IDW60801/IDW60801.95611.axf

JavaScript Object Notation format (JSON) in row-major order
http://www.bom.gov.au/fwo/IDW60801/IDW60801.95611.json

Data quality

Most of these data are generated automatically and are frequently updated. Quality checks on data are not normally performed. It is possible for incorrect values to appear. Refer to information at About Latest Weather Observations and please check the disclaimer before using these data.